createdAt,value
2023-03-02T00:01:55.130Z,97024.88
2023-03-02T00:04:33.560Z,97026.09
2023-03-02T00:07:08.095Z,97024.88
2023-03-02T00:09:35.474Z,97030.84
2023-03-02T00:12:02.478Z,97026.81
2023-03-02T00:14:29.407Z,97026.38
2023-03-02T00:16:56.504Z,97027.13
2023-03-02T00:19:23.518Z,97024.56
2023-03-02T00:21:50.615Z,97020.31
2023-03-02T00:24:17.685Z,97020.88
2023-03-02T00:26:44.937Z,97019.31
2023-03-02T00:29:12.046Z,97024.69
2023-03-02T00:31:39.243Z,97023.72
2023-03-02T00:34:06.322Z,97024.72
2023-03-02T00:36:33.250Z,97016.25
2023-03-02T00:39:00.256Z,97017.44
2023-03-02T00:41:27.412Z,97010.66
2023-03-02T00:43:54.468Z,97016.84
2023-03-02T00:46:23.028Z,97018.41
2023-03-02T00:48:50.446Z,97013.25
2023-03-02T00:51:17.884Z,97012.41
2023-03-02T00:53:44.951Z,97015.56
2023-03-02T00:56:12.241Z,97006.38
2023-03-02T00:58:43.968Z,97008.06
2023-03-02T01:01:12.077Z,97001.75
2023-03-02T01:03:43.760Z,97004.59
2023-03-02T01:06:15.472Z,97004.03
2023-03-02T01:08:42.493Z,97004.53
2023-03-02T01:11:16.717Z,96998.38
2023-03-02T01:13:44.209Z,97001.38
2023-03-02T01:16:12.112Z,96990.59
2023-03-02T01:18:39.915Z,96986.34
2023-03-02T01:21:12.309Z,96981.88
2023-03-02T01:23:39.248Z,96986.00
2023-03-02T01:26:06.411Z,96979.72
2023-03-02T01:28:33.806Z,96977.09
2023-03-02T01:31:02.775Z,96979.50
2023-03-02T01:33:30.674Z,96975.25
2023-03-02T01:35:57.656Z,96969.50
2023-03-02T01:38:24.727Z,96972.38
2023-03-02T01:40:52.051Z,96967.78
2023-03-02T01:43:19.141Z,96970.22
2023-03-02T01:45:47.664Z,96966.84
2023-03-02T01:48:23.916Z,96970.41
2023-03-02T01:50:50.979Z,96964.91
2023-03-02T01:53:18.195Z,96968.81
2023-03-02T01:55:45.937Z,96970.41
2023-03-02T01:58:13.821Z,96968.56
2023-03-02T02:00:41.157Z,96961.91
2023-03-02T02:03:27.814Z,96949.84
2023-03-02T02:06:25.210Z,96954.59
2023-03-02T02:08:53.015Z,96947.44
2023-03-02T02:11:19.984Z,96949.41
2023-03-02T02:13:55.346Z,96953.47
2023-03-02T02:16:22.392Z,96937.78
2023-03-02T02:18:49.534Z,96940.03
2023-03-02T02:21:16.473Z,96936.97
2023-03-02T02:23:49.383Z,96940.53
2023-03-02T02:26:22.841Z,96933.31
2023-03-02T02:29:08.435Z,96939.44
2023-03-02T02:31:50.663Z,96939.00
2023-03-02T02:34:25.209Z,96929.78
2023-03-02T02:36:55.338Z,96934.06
2023-03-02T02:39:25.150Z,96931.88
2023-03-02T02:41:55.700Z,96931.00
2023-03-02T02:44:23.418Z,96920.78
2023-03-02T02:46:50.383Z,96928.13
2023-03-02T02:49:28.726Z,96927.09
2023-03-02T02:51:55.711Z,96918.09
2023-03-02T02:54:22.898Z,96919.75
2023-03-02T02:56:50.612Z,96914.34
2023-03-02T02:59:25.569Z,96929.72
2023-03-02T03:01:52.899Z,96921.88
2023-03-02T03:04:21.624Z,96922.50
2023-03-02T03:07:02.485Z,96922.50
2023-03-02T03:09:29.878Z,96924.75
2023-03-02T03:12:14.975Z,96917.19
2023-03-02T03:14:41.996Z,96911.66
2023-03-02T03:17:13.550Z,96906.41
2023-03-02T03:19:47.808Z,96922.19
2023-03-02T03:22:16.385Z,96913.03
2023-03-02T03:24:45.521Z,96911.06
2023-03-02T03:27:14.840Z,96914.88
2023-03-02T03:29:44.765Z,96904.19
2023-03-02T03:32:13.849Z,96911.66
2023-03-02T03:34:41.719Z,96896.50
2023-03-02T03:37:17.436Z,96903.09
2023-03-02T03:39:45.171Z,96903.34
2023-03-02T03:42:12.219Z,96909.28
2023-03-02T03:44:39.202Z,96911.69
2023-03-02T03:47:06.435Z,96907.75
2023-03-02T03:49:33.663Z,96910.13
2023-03-02T03:52:00.783Z,96907.31
2023-03-02T03:54:28.055Z,96908.47
2023-03-02T03:56:55.365Z,96906.41
2023-03-02T03:59:24.156Z,96905.47
2023-03-02T04:01:57.223Z,96901.81
2023-03-02T04:04:29.257Z,96904.69
2023-03-02T04:06:56.833Z,96904.16
2023-03-02T04:09:24.686Z,96909.38
2023-03-02T04:11:53.593Z,96908.50
2023-03-02T04:14:21.482Z,96912.13
2023-03-02T04:16:49.019Z,96897.31
2023-03-02T04:19:17.668Z,96899.84
2023-03-02T04:21:49.097Z,96899.25
2023-03-02T04:24:18.496Z,96896.06
2023-03-02T04:26:45.623Z,96893.41
2023-03-02T04:29:12.777Z,96884.59
2023-03-02T04:31:40.771Z,96894.00
2023-03-02T04:34:08.610Z,96894.75
2023-03-02T04:36:39.018Z,96890.31
2023-03-02T04:39:08.767Z,96883.72
2023-03-02T04:41:36.020Z,96880.22
2023-03-02T04:44:03.111Z,96882.88
2023-03-02T04:46:30.517Z,96884.94
2023-03-02T04:48:57.634Z,96885.69
2023-03-02T04:51:30.212Z,96893.72
2023-03-02T04:53:59.237Z,96884.94
2023-03-02T04:56:26.180Z,96879.50
2023-03-02T04:58:53.363Z,96874.94
2023-03-02T05:01:20.265Z,96879.78
2023-03-02T05:03:47.372Z,96883.59
2023-03-02T05:06:14.519Z,96877.53
2023-03-02T05:08:41.611Z,96887.41
2023-03-02T05:11:09.045Z,96879.50
2023-03-02T05:13:36.273Z,96886.09
2023-03-02T05:16:03.475Z,96882.34
2023-03-02T05:18:31.293Z,96883.34
2023-03-02T05:20:58.368Z,96881.28
2023-03-02T05:23:26.015Z,96881.22
2023-03-02T05:25:55.943Z,96882.69
2023-03-02T05:28:24.144Z,96877.25
2023-03-02T05:30:51.291Z,96875.31
2023-03-02T05:33:18.621Z,96882.84
2023-03-02T05:35:45.599Z,96878.69
2023-03-02T05:38:12.613Z,96885.81
2023-03-02T05:40:40.467Z,96877.78
2023-03-02T05:43:07.498Z,96877.69
2023-03-02T05:45:36.410Z,96871.88
2023-03-02T05:48:03.612Z,96876.75
2023-03-02T05:50:30.759Z,96881.13
2023-03-02T05:53:00.235Z,96886.97
2023-03-02T05:55:27.289Z,96881.06
2023-03-02T05:57:54.693Z,96889.34
2023-03-02T06:00:22.023Z,96889.91
2023-03-02T06:02:49.053Z,96887.44
2023-03-02T06:05:18.384Z,96891.25
2023-03-02T06:07:45.509Z,96889.31
2023-03-02T06:10:12.754Z,96886.69
2023-03-02T06:12:39.809Z,96890.75
2023-03-02T06:15:07.308Z,96891.91
2023-03-02T06:17:34.699Z,96889.28
2023-03-02T06:20:01.646Z,96888.88
2023-03-02T06:22:28.652Z,96897.81
2023-03-02T06:24:55.580Z,96896.72
2023-03-02T06:27:22.557Z,96891.38
2023-03-02T06:29:49.772Z,96892.31
2023-03-02T06:32:17.037Z,96904.41
2023-03-02T06:34:44.408Z,96899.41
2023-03-02T06:37:13.016Z,96899.13
2023-03-02T06:39:39.956Z,96900.63
2023-03-02T06:42:06.941Z,96895.16
2023-03-02T06:44:33.886Z,96894.66
2023-03-02T06:47:00.829Z,96892.25
2023-03-02T06:49:27.936Z,96898.47
2023-03-02T06:51:54.934Z,96901.44
2023-03-02T06:54:24.080Z,96899.38
2023-03-02T06:56:51.213Z,96904.63
2023-03-02T06:59:18.232Z,96911.59
2023-03-02T07:01:45.202Z,96914.13
2023-03-02T07:04:12.247Z,96925.00
2023-03-02T07:06:39.251Z,96926.53
2023-03-02T07:09:06.195Z,96924.47
2023-03-02T07:11:33.403Z,96930.81
2023-03-02T07:14:01.121Z,96925.00
2023-03-02T07:16:31.262Z,96921.03
2023-03-02T07:18:58.353Z,96922.06
2023-03-02T07:21:25.364Z,96927.31
2023-03-02T07:23:52.571Z,96928.19
2023-03-02T07:26:19.514Z,96930.03
2023-03-02T07:28:46.532Z,96921.28
2023-03-02T07:31:13.839Z,96931.00
2023-03-02T07:33:40.894Z,96928.25
2023-03-02T07:36:08.644Z,96925.72
2023-03-02T07:38:36.581Z,96926.19
2023-03-02T07:41:07.230Z,96930.75
2023-03-02T07:43:35.678Z,96926.88
2023-03-02T07:46:04.549Z,96928.63
2023-03-02T07:48:32.438Z,96931.56
2023-03-02T07:51:00.624Z,96925.72
2023-03-02T07:53:28.076Z,96930.28
2023-03-02T07:55:55.277Z,96929.56
2023-03-02T07:58:22.284Z,96928.69
2023-03-02T08:00:49.312Z,96922.88
2023-03-02T08:03:16.447Z,96927.28
2023-03-02T08:05:43.668Z,96921.00
2023-03-02T08:08:10.640Z,96923.63
2023-03-02T08:10:38.045Z,96925.13
2023-03-02T08:13:05.292Z,96923.34
2023-03-02T08:15:32.619Z,96921.88
2023-03-02T08:17:59.715Z,96930.34
2023-03-02T08:20:26.702Z,96931.03
2023-03-02T08:22:53.712Z,96923.84
2023-03-02T08:25:20.680Z,96932.41
2023-03-02T08:27:47.733Z,96932.16
2023-03-02T08:30:14.906Z,96931.69
2023-03-02T08:32:41.969Z,96933.66
2023-03-02T08:35:09.239Z,96925.03
2023-03-02T08:37:36.395Z,96933.31
2023-03-02T08:40:04.043Z,96931.25
2023-03-02T08:42:31.038Z,96926.28
2023-03-02T08:44:58.021Z,96920.16
2023-03-02T08:47:25.026Z,96917.13
2023-03-02T08:49:51.988Z,96915.72
2023-03-02T08:52:19.169Z,96919.25
2023-03-02T08:54:46.449Z,96910.63
2023-03-02T08:57:14.550Z,96912.00
2023-03-02T08:59:41.548Z,96918.47
2023-03-02T09:02:11.411Z,96903.53
2023-03-02T09:04:38.729Z,96909.94
2023-03-02T09:07:06.048Z,96907.44
2023-03-02T09:09:34.378Z,96913.34
2023-03-02T09:12:01.987Z,96917.56
2023-03-02T09:14:29.137Z,96917.19
2023-03-02T09:16:56.156Z,96924.34
2023-03-02T09:19:23.218Z,96913.97
2023-03-02T09:21:50.370Z,96922.94
2023-03-02T09:24:17.375Z,96917.16
2023-03-02T09:26:44.566Z,96911.50
2023-03-02T09:29:11.960Z,96914.31
2023-03-02T09:31:39.457Z,96911.88
2023-03-02T09:34:07.172Z,96915.97
2023-03-02T09:36:34.779Z,96918.78
2023-03-02T09:39:03.825Z,96923.78
2023-03-02T09:41:53.963Z,96917.16
2023-03-02T09:44:45.261Z,96908.38
2023-03-02T09:47:12.272Z,96911.72
2023-03-02T09:49:57.956Z,96916.06
2023-03-02T09:52:35.864Z,96916.28
2023-03-02T09:55:25.068Z,96923.78
2023-03-02T09:57:53.135Z,96928.03
2023-03-02T10:00:27.083Z,96919.13
2023-03-02T10:03:16.503Z,96917.59
2023-03-02T10:05:48.967Z,96922.84
2023-03-02T10:08:21.768Z,96917.19
2023-03-02T10:11:03.450Z,96911.81
2023-03-02T10:13:52.512Z,96911.78
2023-03-02T10:16:50.266Z,96915.47
2023-03-02T10:19:32.588Z,96905.47
2023-03-02T10:22:24.460Z,96908.00
2023-03-02T10:25:23.905Z,96905.38
2023-03-02T10:27:52.782Z,96914.59
2023-03-02T10:30:34.116Z,96920.09
2023-03-02T10:33:22.999Z,96907.53
2023-03-02T10:35:51.216Z,96914.69
2023-03-02T10:38:20.293Z,96918.59
2023-03-02T10:41:00.380Z,96908.28
2023-03-02T10:43:34.775Z,96919.19
2023-03-02T10:46:08.904Z,96905.69
2023-03-02T10:48:54.629Z,96908.25
2023-03-02T10:51:28.821Z,96905.59
2023-03-02T10:54:10.485Z,96899.13
2023-03-02T10:56:37.740Z,96903.28
2023-03-02T10:59:29.807Z,96900.91
2023-03-02T11:02:01.761Z,96888.75
2023-03-02T11:04:29.630Z,96891.66
2023-03-02T11:07:14.919Z,96886.47
2023-03-02T11:09:42.013Z,96880.38
2023-03-02T11:12:16.506Z,96882.00
2023-03-02T11:14:43.620Z,96885.72
2023-03-02T11:17:31.168Z,96881.06
2023-03-02T11:19:58.216Z,96882.25
2023-03-02T11:22:34.731Z,96880.25
2023-03-02T11:25:01.969Z,96880.84
2023-03-02T11:27:31.240Z,96864.16
2023-03-02T11:30:04.819Z,96869.81
2023-03-02T11:32:50.479Z,96868.66
2023-03-02T11:35:39.413Z,96862.56
2023-03-02T11:38:19.787Z,96863.56
2023-03-02T11:40:51.872Z,96862.97
2023-03-02T11:43:19.130Z,96865.16
2023-03-02T11:46:10.914Z,96865.56
2023-03-02T11:48:43.201Z,96857.72
2023-03-02T11:51:15.039Z,96859.09
2023-03-02T11:53:43.546Z,96853.59
2023-03-02T11:56:10.558Z,96852.38
2023-03-02T11:58:37.955Z,96852.22
2023-03-02T12:01:05.103Z,96843.69
2023-03-02T12:03:31.945Z,96845.34
2023-03-02T12:06:07.269Z,96842.81
2023-03-02T12:08:40.470Z,96843.34
2023-03-02T12:11:25.662Z,96843.34
2023-03-02T12:13:52.759Z,96829.53
2023-03-02T12:16:36.810Z,96830.03
2023-03-02T12:19:28.998Z,96841.50
2023-03-02T12:22:00.578Z,96837.13
2023-03-02T12:24:32.396Z,96834.50
2023-03-02T12:27:27.335Z,96837.97
2023-03-02T12:30:08.898Z,96843.91
2023-03-02T12:32:36.162Z,96835.31
2023-03-02T12:35:08.877Z,96835.06
2023-03-02T12:37:59.181Z,96833.69
2023-03-02T12:40:28.946Z,96824.69
2023-03-02T12:43:18.833Z,96833.72
2023-03-02T12:46:23.288Z,96820.38
2023-03-02T12:48:53.624Z,96815.44
2023-03-02T12:51:22.462Z,96816.22
2023-03-02T12:53:50.596Z,96819.91
2023-03-02T12:56:24.528Z,96818.34
2023-03-02T12:58:52.286Z,96812.16
2023-03-02T13:01:27.866Z,96801.28
2023-03-02T13:03:55.213Z,96807.88
2023-03-02T13:06:23.866Z,96809.19
2023-03-02T13:08:53.467Z,96804.22
2023-03-02T13:11:29.053Z,96813.34
2023-03-02T13:13:56.743Z,96802.50
2023-03-02T13:16:28.447Z,96811.88
2023-03-02T13:18:57.854Z,96799.09
2023-03-02T13:21:37.968Z,96806.03
2023-03-02T13:24:33.304Z,96808.72
2023-03-02T13:27:04.692Z,96806.03
2023-03-02T13:29:32.045Z,96795.91
2023-03-02T13:32:34.026Z,96805.25
2023-03-02T13:35:02.638Z,96792.50
2023-03-02T13:37:43.625Z,96804.31
2023-03-02T13:40:23.353Z,96803.50
2023-03-02T13:42:51.798Z,96793.56
2023-03-02T13:45:21.879Z,96794.09
2023-03-02T13:47:48.939Z,96795.75
2023-03-02T13:50:29.404Z,96797.44
2023-03-02T13:53:02.505Z,96795.38
2023-03-02T13:55:30.053Z,96791.25
2023-03-02T13:57:56.967Z,96793.66
2023-03-02T14:00:28.677Z,96796.50
2023-03-02T14:02:55.724Z,96798.78
2023-03-02T14:05:24.497Z,96787.72
2023-03-02T14:07:51.649Z,96796.31
2023-03-02T14:10:19.065Z,96790.16
2023-03-02T14:12:54.006Z,96791.94
2023-03-02T14:15:21.055Z,96792.81
2023-03-02T14:17:49.438Z,96788.94
2023-03-02T14:20:21.029Z,96783.22
2023-03-02T14:22:48.216Z,96773.84
2023-03-02T14:25:15.497Z,96785.19
2023-03-02T14:27:42.879Z,96783.53
2023-03-02T14:30:20.365Z,96782.16
2023-03-02T14:32:47.439Z,96780.56
2023-03-02T14:35:15.950Z,96778.31
2023-03-02T14:37:47.603Z,96778.88
2023-03-02T14:40:18.885Z,96777.72
2023-03-02T14:42:46.420Z,96776.53
2023-03-02T14:45:13.592Z,96775.53
2023-03-02T14:47:40.541Z,96773.53
2023-03-02T14:50:07.960Z,96779.56
2023-03-02T14:52:44.536Z,96772.72
2023-03-02T14:55:37.781Z,96770.91
2023-03-02T14:58:11.006Z,96774.22
2023-03-02T15:00:38.012Z,96775.09
2023-03-02T15:03:05.025Z,96768.28
2023-03-02T15:05:32.245Z,96773.06
2023-03-02T15:07:59.246Z,96778.72
2023-03-02T15:10:26.225Z,96765.34
2023-03-02T15:12:54.973Z,96773.97
2023-03-02T15:15:23.062Z,96774.16
2023-03-02T15:17:51.605Z,96770.56
2023-03-02T15:20:18.529Z,96771.38
2023-03-02T15:22:46.625Z,96767.19
2023-03-02T15:25:13.661Z,96776.66
2023-03-02T15:27:41.635Z,96780.84
2023-03-02T15:30:09.241Z,96781.66
2023-03-02T15:32:36.741Z,96779.53
2023-03-02T15:35:04.673Z,96781.56
2023-03-02T15:37:31.889Z,96782.44
2023-03-02T15:40:01.435Z,96781.88
2023-03-02T15:42:28.404Z,96783.88
2023-03-02T15:44:55.362Z,96785.41
2023-03-02T15:47:22.570Z,96781.19
2023-03-02T15:49:50.180Z,96784.84
2023-03-02T15:52:17.221Z,96788.06
2023-03-02T15:54:44.164Z,96781.72
2023-03-02T15:57:11.574Z,96782.28
2023-03-02T15:59:38.618Z,96784.16
2023-03-02T16:02:05.641Z,96783.97
2023-03-02T16:04:32.826Z,96787.63
2023-03-02T16:06:59.863Z,96789.81
2023-03-02T16:09:29.039Z,96793.81
2023-03-02T16:11:56.257Z,96799.03
2023-03-02T16:14:23.447Z,96794.72
2023-03-02T16:16:50.627Z,96794.63
2023-03-02T16:19:19.185Z,96800.50
2023-03-02T16:21:47.318Z,96802.94
2023-03-02T16:24:16.378Z,96803.66
2023-03-02T16:26:43.619Z,96804.72
2023-03-02T16:29:10.881Z,96806.69
2023-03-02T16:31:39.250Z,96813.44
2023-03-02T16:34:08.861Z,96807.97
2023-03-02T16:36:37.009Z,96807.38
2023-03-02T16:39:04.416Z,96799.97
2023-03-02T16:41:31.390Z,96811.69
2023-03-02T16:43:59.153Z,96807.50
2023-03-02T16:46:27.790Z,96814.16
2023-03-02T16:48:55.140Z,96808.94
2023-03-02T16:51:22.209Z,96819.94
2023-03-02T16:53:49.645Z,96821.56
2023-03-02T16:56:16.845Z,96823.50
2023-03-02T16:58:43.928Z,96827.63
2023-03-02T17:01:13.887Z,96834.00
2023-03-02T17:03:41.034Z,96838.00
2023-03-02T17:06:09.590Z,96839.06
2023-03-02T17:08:37.007Z,96846.50
2023-03-02T17:11:04.106Z,96853.22
2023-03-02T17:13:31.464Z,96855.50
2023-03-02T17:15:58.583Z,96851.78
2023-03-02T17:18:27.717Z,96850.16
2023-03-02T17:20:57.506Z,96854.34
2023-03-02T17:23:25.164Z,96866.28
2023-03-02T17:25:54.025Z,96866.47
2023-03-02T17:28:21.037Z,96867.59
2023-03-02T17:30:50.390Z,96872.09
2023-03-02T17:33:18.368Z,96866.09
2023-03-02T17:35:46.468Z,96875.94
2023-03-02T17:38:15.169Z,96877.72
2023-03-02T17:40:42.758Z,96871.28
2023-03-02T17:43:10.924Z,96880.75
2023-03-02T17:45:38.209Z,96885.78
2023-03-02T17:48:05.642Z,96888.31
2023-03-02T17:50:32.796Z,96895.31
2023-03-02T17:53:00.397Z,96887.91
2023-03-02T17:55:27.487Z,96893.66
2023-03-02T17:57:54.579Z,96894.53
2023-03-02T18:00:22.665Z,96899.63
2023-03-02T18:02:50.274Z,96897.50
2023-03-02T18:05:20.017Z,96902.56
2023-03-02T18:07:47.369Z,96896.72
2023-03-02T18:10:14.406Z,96897.06
2023-03-02T18:12:41.501Z,96905.63
2023-03-02T18:15:09.273Z,96903.53
2023-03-02T18:17:36.348Z,96914.78
2023-03-02T18:20:03.816Z,96915.84
2023-03-02T18:22:31.003Z,96912.69
2023-03-02T18:24:58.090Z,96914.28
2023-03-02T18:27:25.207Z,96907.31
2023-03-02T18:29:52.298Z,96914.78
2023-03-02T18:32:20.797Z,96910.50
2023-03-02T18:34:48.725Z,96909.41
2023-03-02T18:37:15.806Z,96915.84
2023-03-02T18:39:43.759Z,96918.00
2023-03-02T18:42:12.656Z,96920.13
2023-03-02T18:44:39.791Z,96919.06
2023-03-02T18:47:09.697Z,96914.78
2023-03-02T18:49:38.348Z,96920.13
2023-03-02T18:52:07.029Z,96923.84
2023-03-02T18:54:34.087Z,96919.59
2023-03-02T18:57:01.806Z,96921.16
2023-03-02T18:59:29.971Z,96924.56
2023-03-02T19:01:57.750Z,96925.59
2023-03-02T19:04:26.794Z,96921.56
2023-03-02T19:06:55.742Z,96925.28
2023-03-02T19:09:23.740Z,96925.56
2023-03-02T19:11:52.069Z,96924.66
2023-03-02T19:14:19.370Z,96933.03
2023-03-02T19:16:46.959Z,96934.19
2023-03-02T19:19:14.182Z,96939.56
2023-03-02T19:21:41.361Z,96948.56
2023-03-02T19:24:09.391Z,96947.28
2023-03-02T19:26:36.450Z,96949.59
2023-03-02T19:29:06.326Z,96945.25
2023-03-02T19:31:33.626Z,96950.09
2023-03-02T19:34:00.730Z,96950.94
2023-03-02T19:36:27.819Z,96951.31
2023-03-02T19:38:54.799Z,96951.50
2023-03-02T19:41:22.205Z,96964.25
2023-03-02T19:43:49.460Z,96959.25
2023-03-02T19:46:17.288Z,96968.13
2023-03-02T19:48:44.366Z,96957.50
2023-03-02T19:51:13.822Z,96963.28
2023-03-02T19:53:41.409Z,96976.19
2023-03-02T19:56:12.028Z,96971.34
2023-03-02T19:58:47.037Z,96966.81
2023-03-02T20:01:16.896Z,96970.16
2023-03-02T20:03:44.432Z,96974.72
2023-03-02T20:06:11.523Z,96972.13
2023-03-02T20:08:38.683Z,96975.47
2023-03-02T20:11:05.715Z,96985.59
2023-03-02T20:13:33.310Z,96979.47
2023-03-02T20:16:00.876Z,96991.09
2023-03-02T20:18:28.051Z,96989.19
2023-03-02T20:20:55.063Z,96992.00
2023-03-02T20:23:22.420Z,96991.41
2023-03-02T20:25:50.112Z,96992.00
2023-03-02T20:28:18.383Z,96992.31
2023-03-02T20:30:48.255Z,96989.84
2023-03-02T20:33:15.815Z,96992.31
2023-03-02T20:35:43.765Z,97005.13
2023-03-02T20:38:25.431Z,97000.13
2023-03-02T20:40:53.327Z,96999.66
2023-03-02T20:43:20.783Z,97002.31
2023-03-02T20:45:47.820Z,97003.13
2023-03-02T20:48:14.804Z,97008.44
2023-03-02T20:50:41.883Z,97009.22
2023-03-02T20:53:09.668Z,96999.13
2023-03-02T20:55:36.874Z,97009.44
2023-03-02T20:58:05.466Z,97009.94
2023-03-02T21:00:32.955Z,97006.28
2023-03-02T21:02:59.981Z,97007.22
2023-03-02T21:05:27.622Z,97016.13
2023-03-02T21:07:54.775Z,97013.63
2023-03-02T21:10:28.144Z,97016.63
2023-03-02T21:12:55.284Z,97014.84
2023-03-02T21:15:23.955Z,97017.91
2023-03-02T21:17:51.807Z,97013.16
2023-03-02T21:20:18.847Z,97007.59
2023-03-02T21:22:46.794Z,97008.59
2023-03-02T21:25:13.941Z,97014.06
2023-03-02T21:27:41.180Z,97009.63
2023-03-02T21:30:09.477Z,97020.97
2023-03-02T21:32:36.387Z,97017.25
2023-03-02T21:35:03.362Z,97012.13
2023-03-02T21:37:30.569Z,97008.91
2023-03-02T21:39:59.090Z,97019.00
2023-03-02T21:42:26.619Z,97017.44
2023-03-02T21:44:56.038Z,97020.47
2023-03-02T21:47:23.090Z,97018.25
2023-03-02T21:49:50.059Z,97022.50
2023-03-02T21:52:17.001Z,97032.13
2023-03-02T21:54:44.103Z,97017.25
2023-03-02T21:57:11.156Z,97019.41
2023-03-02T21:59:38.141Z,97022.06
2023-03-02T22:02:05.208Z,97019.16
2023-03-02T22:04:33.704Z,97014.81
2023-03-02T22:07:01.575Z,97014.81
2023-03-02T22:09:28.697Z,97023.88
2023-03-02T22:11:55.721Z,97022.25
2023-03-02T22:14:22.701Z,97021.38
2023-03-02T22:16:49.769Z,97019.56
2023-03-02T22:19:23.457Z,97019.09
2023-03-02T22:21:50.766Z,97018.72
2023-03-02T22:24:23.512Z,97029.81
2023-03-02T22:27:02.144Z,97025.19
2023-03-02T22:29:30.064Z,97039.66
2023-03-02T22:31:59.412Z,97031.16
2023-03-02T22:34:30.162Z,97037.13
2023-03-02T22:37:03.200Z,97036.69
2023-03-02T22:39:32.320Z,97037.88
2023-03-02T22:42:10.349Z,97028.41
2023-03-02T22:44:39.099Z,97027.28
2023-03-02T22:47:15.724Z,97030.97
2023-03-02T22:49:43.158Z,97036.94
2023-03-02T22:52:20.224Z,97034.75
2023-03-02T22:54:47.395Z,97034.66
2023-03-02T22:57:29.125Z,97035.94
2023-03-02T23:00:30.881Z,97039.00
2023-03-02T23:02:58.060Z,97042.91
2023-03-02T23:05:26.299Z,97038.63
2023-03-02T23:08:17.096Z,97036.25
2023-03-02T23:10:44.878Z,97036.50
2023-03-02T23:13:12.676Z,97036.63
2023-03-02T23:15:41.744Z,97041.91
2023-03-02T23:18:26.948Z,97033.50
2023-03-02T23:20:54.226Z,97033.25
2023-03-02T23:23:25.096Z,97031.91
2023-03-02T23:25:52.142Z,97029.59
2023-03-02T23:28:19.174Z,97032.25
2023-03-02T23:30:47.667Z,97030.88
2023-03-02T23:33:14.645Z,97032.38
2023-03-02T23:35:42.175Z,97036.25
2023-03-02T23:38:09.189Z,97035.34
2023-03-02T23:40:36.169Z,97035.03
2023-03-02T23:43:03.252Z,97040.31
2023-03-02T23:45:30.293Z,97039.28
2023-03-02T23:47:59.215Z,97035.94
2023-03-02T23:50:26.317Z,97030.00
2023-03-02T23:52:53.391Z,97036.22
2023-03-02T23:55:20.368Z,97033.47
2023-03-02T23:57:47.506Z,97024.94
